Time;durP1;ratioP1;P1;durP2;ratioP2;P2;SDS_P1;SDS_P2;PMS_P1;PMS_P2;Temp;Humidity;BMP_temperature;BMP_pressure;BME280_temperature;BME280_humidity;BME280_pressure;Samples;Min_cycle;Max_cycle;Signal;HPM_P1;HPM_P2
2023/04/16 00:00:12;;;;;;;;;;;;;;;22.55;24.11;97757.31;5050705;28;19925;-83
2023/04/16 00:02:38;;;;;;;;;;;;;;;22.62;23.88;97760.81;5047850;28;19925;-83
2023/04/16 00:05:04;;;;;;;;;;;;;;;22.63;23.59;97768.00;5051966;28;19966;-83
2023/04/16 00:07:30;;;;;;;;;;;;;;;22.61;23.43;97764.03;5049615;28;20380;-83
2023/04/16 00:09:56;;;;;;;;;;;;;;;22.63;23.51;97764.41;5040495;28;19956;-83
2023/04/16 00:12:22;;;;;;;;;;;;;;;22.28;23.57;97768.69;5036283;28;19975;-85
2023/04/16 00:14:48;;;;;;;;;;;;;;;22.27;23.90;97772.69;5047165;28;19967;-83
2023/04/16 00:17:14;;;;;;;;;;;;;;;22.35;23.87;97776.94;5038663;28;19921;-83
2023/04/16 00:19:40;;;;;;;;;;;;;;;22.35;23.44;97781.72;5044006;28;20425;-83
2023/04/16 00:22:06;;;;;;;;;;;;;;;22.03;24.18;97779.56;5047515;28;19920;-82
2023/04/16 00:24:32;;;;;;;;;;;;;;;22.26;24.06;97787.09;5051721;28;19925;-82
2023/04/16 00:26:58;;;;;;;;;;;;;;;22.21;23.94;97795.97;5035128;28;20082;-83
2023/04/16 00:29:27;;;;;;;;;;;;;;;22.20;24.45;97794.38;5049812;28;20431;-82
2023/04/16 00:31:53;;;;;;;;;;;;;;;22.31;23.89;97792.19;5048210;28;19921;-82
2023/04/16 00:34:19;;;;;;;;;;;;;;;22.27;24.10;97802.66;5040250;28;19967;-82
2023/04/16 00:36:45;;;;;;;;;;;;;;;21.89;24.77;97799.38;5017354;28;20269;-82
2023/04/16 00:39:11;;;;;;;;;;;;;;;22.06;24.48;97808.63;5042401;28;19921;-82
2023/04/16 00:41:37;;;;;;;;;;;;;;;22.04;24.38;97806.28;5046284;28;19925;-82
2023/04/16 00:44:03;;;;;;;;;;;;;;;21.93;24.57;97814.06;5046409;28;20388;-82
2023/04/16 00:46:30;;;;;;;;;;;;;;;21.95;25.23;97820.03;5049020;28;19925;-82
2023/04/16 00:48:56;;;;;;;;;;;;;;;22.13;24.94;97819.69;5043863;28;19921;-82
2023/04/16 00:51:22;;;;;;;;;;;;;;;22.18;25.15;97817.19;5027221;28;20014;-83
2023/04/16 00:53:49;;;;;;;;;;;;;;;22.31;24.89;97820.16;5033356;28;19921;-85
2023/04/16 00:56:15;;;;;;;;;;;;;;;22.25;24.95;97825.47;5037029;28;19964;-82
2023/04/16 00:58:41;;;;;;;;;;;;;;;22.15;24.89;97826.44;5042098;28;20357;-83
2023/04/16 01:01:07;;;;;;;;;;;;;;;22.31;24.66;97820.94;5044629;28;19920;-82
2023/04/16 01:03:42;;;;;;;;;;;;;;;22.23;25.32;97824.31;5046524;28;20372;-82
2023/04/16 01:06:08;;;;;;;;;;;;;;;22.29;24.53;97819.78;5042708;28;19999;-82
2023/04/16 01:08:35;;;;;;;;;;;;;;;22.38;24.36;97823.59;5043980;28;19960;-83
2023/04/16 01:11:01;;;;;;;;;;;;;;;22.12;24.29;97816.13;5043892;28;19921;-82
2023/04/16 01:13:27;;;;;;;;;;;;;;;22.17;25.15;97818.41;5048077;28;19920;-82
2023/04/16 01:15:53;;;;;;;;;;;;;;;22.35;24.46;97816.09;5049506;28;20007;-83
2023/04/16 01:18:20;;;;;;;;;;;;;;;22.53;23.98;97821.31;5052354;28;19973;-85
2023/04/16 01:20:49;;;;;;;;;;;;;;;22.64;23.73;97821.94;5045103;28;19921;-83
2023/04/16 01:23:17;;;;;;;;;;;;;;;22.56;23.34;97821.28;5057865;28;19920;-83
2023/04/16 01:25:44;;;;;;;;;;;;;;;22.16;24.34;97821.63;5054570;28;19948;-83
2023/04/16 01:28:10;;;;;;;;;;;;;;;22.04;24.46;97817.47;5054223;28;19920;-82
2023/04/16 01:30:36;;;;;;;;;;;;;;;21.83;24.46;97820.59;5041743;28;20434;-83
2023/04/16 01:33:02;;;;;;;;;;;;;;;21.44;25.02;97821.22;5046899;28;19931;-83
2023/04/16 01:35:28;;;;;;;;;;;;;;;21.06;25.56;97817.78;5049922;28;19925;-84
2023/04/16 01:37:54;;;;;;;;;;;;;;;21.15;25.70;97818.06;5047290;28;20342;-82
2023/04/16 01:40:20;;;;;;;;;;;;;;;21.33;25.45;97815.78;5048243;28;19998;-82
2023/04/16 01:42:46;;;;;;;;;;;;;;;21.40;25.47;97819.72;5049912;28;19936;-82
2023/04/16 01:45:12;;;;;;;;;;;;;;;21.53;25.51;97812.31;5051147;28;19982;-83
2023/04/16 01:47:38;;;;;;;;;;;;;;;21.85;24.93;97820.97;5049458;28;19931;-83
2023/04/16 01:50:05;;;;;;;;;;;;;;;21.96;24.73;97814.00;5036330;28;20013;-83
2023/04/16 01:52:31;;;;;;;;;;;;;;;22.16;24.20;97814.03;5047061;28;19921;-83
2023/04/16 01:54:57;;;;;;;;;;;;;;;22.27;23.44;97817.44;5033421;28;20007;-83
2023/04/16 01:57:23;;;;;;;;;;;;;;;22.19;23.73;97813.19;5036028;28;19964;-83
2023/04/16 01:59:49;;;;;;;;;;;;;;;21.99;23.90;97815.94;5048904;28;20748;-82
2023/04/16 02:02:15;;;;;;;;;;;;;;;21.15;25.22;97822.84;5048530;28;19924;-83
2023/04/16 02:04:42;;;;;;;;;;;;;;;21.15;25.08;97822.84;5037242;28;20030;-82
2023/04/16 02:07:08;;;;;;;;;;;;;;;21.40;25.32;97825.28;5050621;28;19916;-83
2023/04/16 02:09:38;;;;;;;;;;;;;;;21.46;25.10;97824.38;5050870;28;19975;-83
2023/04/16 02:12:04;;;;;;;;;;;;;;;21.67;24.85;97837.22;5052583;28;19975;-82
2023/04/16 02:14:31;;;;;;;;;;;;;;;21.97;24.45;97825.97;5055983;28;20020;-83
2023/04/16 02:16:57;;;;;;;;;;;;;;;21.65;25.27;97832.06;5055325;28;19917;-83
2023/04/16 02:19:23;;;;;;;;;;;;;;;21.69;24.72;97830.00;5054007;28;20384;-83
2023/04/16 02:21:52;;;;;;;;;;;;;;;21.75;24.25;97830.31;5050586;28;19921;-82
2023/04/16 02:24:18;;;;;;;;;;;;;;;21.44;24.95;97838.00;5053757;28;19925;-82
2023/04/16 02:26:44;;;;;;;;;;;;;;;21.62;24.90;97835.72;5054473;28;19920;-83
2023/04/16 02:29:10;;;;;;;;;;;;;;;21.83;24.50;97840.16;5049539;28;20398;-83
2023/04/16 02:31:37;;;;;;;;;;;;;;;22.09;24.30;97836.53;5050803;28;19921;-82
2023/04/16 02:34:03;;;;;;;;;;;;;;;22.15;24.21;97839.66;5043849;28;20451;-82
2023/04/16 02:36:30;;;;;;;;;;;;;;;22.17;24.38;97840.00;5050715;28;19920;-82
2023/04/16 02:38:57;;;;;;;;;;;;;;;22.29;23.71;97845.75;5044512;28;20030;-82
2023/04/16 02:41:23;;;;;;;;;;;;;;;22.31;23.53;97854.50;5049479;28;19993;-82
2023/04/16 02:43:49;;;;;;;;;;;;;;;22.08;24.36;97862.16;5034914;28;19974;-82
2023/04/16 02:46:15;;;;;;;;;;;;;;;21.97;24.63;97863.09;5049051;28;19974;-82
2023/04/16 02:48:41;;;;;;;;;;;;;;;22.15;24.22;97854.41;5043143;28;20020;-82
2023/04/16 02:51:07;;;;;;;;;;;;;;;22.38;23.75;97862.00;5049544;28;19921;-82
2023/04/16 02:53:33;;;;;;;;;;;;;;;22.41;23.79;97861.13;5049981;28;19929;-82
2023/04/16 02:55:59;;;;;;;;;;;;;;;22.19;24.06;97866.34;5049188;28;19921;-82
2023/04/16 02:58:25;;;;;;;;;;;;;;;22.01;23.81;97863.03;5052620;28;19925;-82
2023/04/16 03:00:52;;;;;;;;;;;;;;;21.70;24.67;97869.91;5054074;28;19928;-82
2023/04/16 03:03:18;;;;;;;;;;;;;;;21.81;24.92;97865.75;5054825;28;19967;-82
2023/04/16 03:05:44;;;;;;;;;;;;;;;22.12;24.35;97865.66;5029271;28;19927;-82
2023/04/16 03:08:10;;;;;;;;;;;;;;;22.38;23.72;97875.97;5048654;28;19921;-81
2023/04/16 03:10:37;;;;;;;;;;;;;;;22.48;23.53;97872.97;5051184;28;19920;-82
2023/04/16 03:13:03;;;;;;;;;;;;;;;22.41;22.79;97878.69;5039495;28;19971;-81
2023/04/16 03:15:30;;;;;;;;;;;;;;;21.69;23.68;97877.50;5052912;28;21692;-81
2023/04/16 03:17:56;;;;;;;;;;;;;;;21.58;24.12;97888.06;5052817;28;19944;-81
2023/04/16 03:20:22;;;;;;;;;;;;;;;21.79;23.42;97892.53;5053412;28;19966;-82
2023/04/16 03:22:48;;;;;;;;;;;;;;;21.83;23.81;97896.06;5052769;28;19985;-82
2023/04/16 03:25:14;;;;;;;;;;;;;;;22.05;23.80;97902.94;5050670;28;19920;-81
2023/04/16 03:27:41;;;;;;;;;;;;;;;22.26;22.92;97898.97;5049725;28;20303;-81
2023/04/16 03:30:07;;;;;;;;;;;;;;;22.08;23.30;97904.09;5045009;28;19925;-81
2023/04/16 03:32:33;;;;;;;;;;;;;;;22.02;22.99;97906.56;5053716;28;20369;-82
2023/04/16 03:34:59;;;;;;;;;;;;;;;21.81;23.29;97906.88;5048396;28;19921;-81
2023/04/16 03:37:25;;;;;;;;;;;;;;;21.23;24.18;97913.69;5048612;28;19921;-81
2023/04/16 03:39:51;;;;;;;;;;;;;;;21.01;24.80;97903.97;5050109;28;20082;-81
2023/04/16 03:42:17;;;;;;;;;;;;;;;21.20;24.62;97904.16;5053096;28;19921;-81
2023/04/16 03:44:44;;;;;;;;;;;;;;;21.28;24.42;97908.41;5040034;28;19927;-81
2023/04/16 03:47:10;;;;;;;;;;;;;;;21.46;24.41;97905.41;5052170;28;20040;-82
2023/04/16 03:49:36;;;;;;;;;;;;;;;21.77;23.57;97908.94;5050075;28;19987;-81
2023/04/16 03:52:02;;;;;;;;;;;;;;;21.78;23.42;97919.69;5044124;28;20444;-81
2023/04/16 03:54:28;;;;;;;;;;;;;;;21.87;22.86;97914.38;5051548;28;20001;-81
2023/04/16 03:56:54;;;;;;;;;;;;;;;21.62;24.00;97915.94;5052433;28;19929;-81
2023/04/16 03:59:20;;;;;;;;;;;;;;;21.56;23.92;97926.81;5043764;28;19932;-81
2023/04/16 04:01:46;;;;;;;;;;;;;;;21.56;23.91;97920.41;5049857;28;19916;-81
2023/04/16 04:04:12;;;;;;;;;;;;;;;21.51;23.98;97932.84;5045203;28;19921;-81
2023/04/16 04:06:38;;;;;;;;;;;;;;;21.51;24.44;97937.66;5051592;28;19947;-81
2023/04/16 04:09:04;;;;;;;;;;;;;;;21.74;24.29;97941.31;5053752;28;20423;-81
2023/04/16 04:11:30;;;;;;;;;;;;;;;22.05;24.01;97944.88;5049524;28;20412;-81
2023/04/16 04:13:56;;;;;;;;;;;;;;;22.51;23.79;97949.66;5054062;28;19917;-81
2023/04/16 04:16:22;;;;;;;;;;;;;;;22.79;24.02;97946.38;5050297;28;19921;-81
2023/04/16 04:18:48;;;;;;;;;;;;;;;22.89;23.97;97953.00;5035137;28;20380;-82
2023/04/16 04:21:14;;;;;;;;;;;;;;;22.83;24.22;97958.31;5050299;28;19928;-81
2023/04/16 04:23:41;;;;;;;;;;;;;;;22.95;24.98;97960.47;5053719;28;19917;-81
2023/04/16 04:26:07;;;;;;;;;;;;;;;23.30;24.30;97965.38;5053109;28;19920;-81
2023/04/16 04:28:34;;;;;;;;;;;;;;;23.38;25.11;97966.06;5048230;28;19987;-81
2023/04/16 04:31:00;;;;;;;;;;;;;;;23.56;26.02;97974.88;5051412;28;19928;-82
2023/04/16 04:33:27;;;;;;;;;;;;;;;24.16;25.25;97981.94;5050052;28;19928;-82
2023/04/16 04:35:53;;;;;;;;;;;;;;;24.41;24.43;97981.34;5033340;28;19925;-82
2023/04/16 04:38:21;;;;;;;;;;;;;;;24.27;24.71;97979.66;5040726;28;21362;-81
2023/04/16 04:40:47;;;;;;;;;;;;;;;24.11;25.99;97976.06;5042157;28;19927;-82
2023/04/16 04:43:13;;;;;;;;;;;;;;;24.19;25.73;97983.06;5047687;28;19931;-82
2023/04/16 04:45:39;;;;;;;;;;;;;;;24.19;26.31;97985.88;5049267;28;19928;-82
2023/04/16 04:48:05;;;;;;;;;;;;;;;24.50;27.06;97978.72;5047849;28;20369;-82
2023/04/16 04:50:31;;;;;;;;;;;;;;;24.93;25.48;97982.00;5050627;28;19927;-82
2023/04/16 04:52:57;;;;;;;;;;;;;;;24.81;26.47;97981.97;5031536;28;20398;-82
2023/04/16 04:55:23;;;;;;;;;;;;;;;24.87;26.09;97986.59;5038796;28;19975;-82
2023/04/16 04:57:49;;;;;;;;;;;;;;;24.72;26.00;97991.75;5045864;28;20410;-82
2023/04/16 05:00:15;;;;;;;;;;;;;;;24.87;26.33;97989.41;5050766;28;19980;-82
2023/04/16 05:02:41;;;;;;;;;;;;;;;24.83;26.67;97994.34;5046142;28;19928;-82
2023/04/16 05:05:07;;;;;;;;;;;;;;;24.91;26.58;97990.09;5053629;28;19921;-82
2023/04/16 05:07:33;;;;;;;;;;;;;;;24.98;26.36;98001.13;5035016;28;19924;-82
2023/04/16 05:10:00;;;;;;;;;;;;;;;24.87;26.68;98006.25;5037178;28;19932;-82
2023/04/16 05:12:26;;;;;;;;;;;;;;;24.87;26.88;98009.06;5057236;28;19948;-82
2023/04/16 05:14:52;;;;;;;;;;;;;;;24.90;26.82;98005.34;5056865;28;19916;-82
2023/04/16 05:17:18;;;;;;;;;;;;;;;24.84;26.55;98015.53;5043836;28;19929;-82
2023/04/16 05:19:44;;;;;;;;;;;;;;;24.74;27.12;98022.19;5054465;28;19921;-82
2023/04/16 05:22:10;;;;;;;;;;;;;;;24.88;27.44;98024.66;5032691;28;20383;-83
2023/04/16 05:24:36;;;;;;;;;;;;;;;25.01;26.85;98025.53;5056835;28;19920;-83
2023/04/16 05:27:02;;;;;;;;;;;;;;;24.86;26.99;98017.91;5053328;28;19974;-83
2023/04/16 05:29:28;;;;;;;;;;;;;;;25.09;25.93;98018.47;5037372;28;20015;-83
2023/04/16 05:31:54;;;;;;;;;;;;;;;24.90;25.79;98019.38;5054821;28;20003;-83
2023/04/16 05:34:20;;;;;;;;;;;;;;;24.89;27.07;98022.66;5048830;28;19925;-82
2023/04/16 05:36:46;;;;;;;;;;;;;;;25.05;26.78;98023.41;5036779;28;19921;-84
2023/04/16 05:39:12;;;;;;;;;;;;;;;25.24;26.31;98028.13;5052941;28;19921;-83
2023/04/16 05:41:38;;;;;;;;;;;;;;;25.45;27.05;98025.97;5052191;28;19999;-83
2023/04/16 05:44:04;;;;;;;;;;;;;;;25.66;25.73;98019.72;5047461;28;20269;-83
2023/04/16 05:46:30;;;;;;;;;;;;;;;25.52;25.67;98025.75;5028357;28;19921;-83
2023/04/16 05:48:56;;;;;;;;;;;;;;;25.80;25.20;98019.31;5043964;28;20350;-83
2023/04/16 05:51:24;;;;;;;;;;;;;;;25.52;25.39;98034.19;5050399;28;20012;-83
2023/04/16 05:53:50;;;;;;;;;;;;;;;25.49;25.35;98035.06;5046620;28;19921;-83
2023/04/16 05:56:16;;;;;;;;;;;;;;;25.60;25.35;98022.28;5038216;28;19927;-83
2023/04/16 05:58:42;;;;;;;;;;;;;;;25.83;25.96;98030.47;5031675;28;19925;-83
2023/04/16 06:01:09;;;;;;;;;;;;;;;26.30;26.00;98027.06;5028658;28;19979;-83
2023/04/16 06:03:35;;;;;;;;;;;;;;;26.77;25.18;98032.78;5040220;28;20005;-83
2023/04/16 06:06:01;;;;;;;;;;;;;;;26.56;25.26;98032.19;5040351;28;19956;-83
2023/04/16 06:08:27;;;;;;;;;;;;;;;26.56;25.73;98035.03;5037536;28;19979;-83
2023/04/16 06:10:53;;;;;;;;;;;;;;;26.81;26.33;98039.09;5041596;28;20723;-82
2023/04/16 06:13:19;;;;;;;;;;;;;;;27.06;26.14;98039.00;5043395;28;20281;-83
2023/04/16 06:15:45;;;;;;;;;;;;;;;27.25;25.50;98029.47;5039829;28;20016;-83
2023/04/16 06:18:11;;;;;;;;;;;;;;;27.46;24.62;98040.03;5040595;28;19917;-83
2023/04/16 06:20:37;;;;;;;;;;;;;;;27.62;24.52;98041.88;5045037;28;19921;-83
2023/04/16 06:23:04;;;;;;;;;;;;;;;27.67;23.73;98042.06;5041423;28;19929;-84
2023/04/16 06:25:30;;;;;;;;;;;;;;;27.56;24.64;98046.53;5048826;28;19921;-83
2023/04/16 06:27:56;;;;;;;;;;;;;;;27.64;25.24;98045.81;5043355;28;19928;-84
2023/04/16 06:30:22;;;;;;;;;;;;;;;27.88;25.38;98051.78;5042670;28;19925;-84
2023/04/16 06:32:48;;;;;;;;;;;;;;;28.00;23.53;98053.75;5045375;28;20046;-83
2023/04/16 06:35:14;;;;;;;;;;;;;;;27.77;24.79;98060.63;5041053;28;19917;-83
2023/04/16 06:37:40;;;;;;;;;;;;;;;27.91;24.77;98065.72;5042425;28;19960;-83
2023/04/16 06:40:07;;;;;;;;;;;;;;;28.10;25.07;98072.31;5036016;28;19968;-84
2023/04/16 06:42:33;;;;;;;;;;;;;;;28.16;25.21;98062.00;5047264;28;20269;-84
2023/04/16 06:44:59;;;;;;;;;;;;;;;27.91;24.65;98067.78;5055481;28;20019;-83
2023/04/16 06:47:25;;;;;;;;;;;;;;;27.73;23.94;98059.97;5052030;28;19929;-83
2023/04/16 06:49:51;;;;;;;;;;;;;;;27.63;24.19;98061.16;5050404;28;19920;-83
2023/04/16 06:52:17;;;;;;;;;;;;;;;27.73;24.69;98062.00;5043156;28;19925;-83
2023/04/16 06:54:44;;;;;;;;;;;;;;;27.48;24.48;98059.31;5045146;28;19924;-83
2023/04/16 06:57:10;;;;;;;;;;;;;;;27.84;25.33;98063.19;5050761;28;19920;-83
2023/04/16 06:59:36;;;;;;;;;;;;;;;27.88;25.12;98066.66;5045675;28;20444;-83
2023/04/16 07:02:02;;;;;;;;;;;;;;;28.11;25.83;98070.28;5043283;28;20015;-82
2023/04/16 07:04:28;;;;;;;;;;;;;;;28.05;24.45;98065.22;5046201;28;19960;-83
2023/04/16 07:06:54;;;;;;;;;;;;;;;28.07;25.38;98073.25;5045619;28;19983;-83
2023/04/16 07:09:20;;;;;;;;;;;;;;;27.87;24.04;98067.91;5046878;28;19956;-81
2023/04/16 07:11:46;;;;;;;;;;;;;;;27.29;25.64;98070.41;5047977;28;19917;-82
2023/04/16 07:14:12;;;;;;;;;;;;;;;26.56;26.83;98070.84;5045363;28;19921;-83
2023/04/16 07:16:39;;;;;;;;;;;;;;;26.76;27.07;98084.72;5053808;28;19972;-83
2023/04/16 07:19:05;;;;;;;;;;;;;;;25.56;27.08;98077.06;5044750;28;19917;-82
2023/04/16 07:21:31;;;;;;;;;;;;;;;24.28;32.08;98093.47;5040306;28;20204;-82
2023/04/16 07:23:57;;;;;;;;;;;;;;;23.19;32.85;98096.47;5041475;28;20371;-83
2023/04/16 07:26:23;;;;;;;;;;;;;;;23.40;31.61;98089.69;5042576;28;20008;-82
2023/04/16 07:28:49;;;;;;;;;;;;;;;24.68;28.69;98094.16;5027241;28;21767;-82
2023/04/16 07:31:15;;;;;;;;;;;;;;;25.21;27.81;98095.63;5046026;28;20000;-82
2023/04/16 07:33:41;;;;;;;;;;;;;;;24.70;30.79;98097.31;5044507;28;20425;-82
2023/04/16 07:36:07;;;;;;;;;;;;;;;24.07;31.48;98102.38;5045522;28;19917;-82
2023/04/16 07:38:33;;;;;;;;;;;;;;;23.89;32.92;98107.53;5053293;28;20315;-82
2023/04/16 07:41:00;;;;;;;;;;;;;;;23.73;29.65;98104.66;5045229;28;19925;-83
2023/04/16 07:43:26;;;;;;;;;;;;;;;25.06;26.73;98108.50;5026518;28;19921;-82
2023/04/16 07:45:52;;;;;;;;;;;;;;;25.11;28.12;98110.78;5043082;28;19928;-81
2023/04/16 07:48:18;;;;;;;;;;;;;;;25.46;27.34;98121.13;5048521;28;19931;-81
2023/04/16 07:50:44;;;;;;;;;;;;;;;25.80;27.48;98124.19;5042749;28;19920;-82
2023/04/16 07:53:10;;;;;;;;;;;;;;;25.62;28.23;98121.09;5029558;28;20754;-82
2023/04/16 07:55:36;;;;;;;;;;;;;;;24.76;31.79;98117.25;5047735;28;20054;-82
2023/04/16 07:58:02;;;;;;;;;;;;;;;25.60;27.82;98120.72;5049712;28;20020;-82
2023/04/16 08:00:28;;;;;;;;;;;;;;;25.54;28.48;98121.69;5044693;28;20612;-82
2023/04/16 08:02:54;;;;;;;;;;;;;;;26.01;28.14;98131.22;5041680;28;20416;-82
2023/04/16 08:05:20;;;;;;;;;;;;;;;25.08;32.02;98132.09;5044667;28;19936;-81
2023/04/16 08:07:46;;;;;;;;;;;;;;;23.55;34.13;98132.25;5039275;28;19917;-82
2023/04/16 08:10:12;;;;;;;;;;;;;;;24.44;30.53;98132.00;5049994;28;19921;-82
2023/04/16 08:12:38;;;;;;;;;;;;;;;24.58;28.66;98126.06;5041805;28;20319;-83
2023/04/16 08:15:05;;;;;;;;;;;;;;;24.10;33.24;98131.56;5027471;28;19929;-83
2023/04/16 08:17:33;;;;;;;;;;;;;;;23.36;34.39;98131.00;5045007;28;19921;-83
2023/04/16 08:19:59;;;;;;;;;;;;;;;24.74;32.34;98124.06;5047834;28;20027;-82
2023/04/16 08:22:25;;;;;;;;;;;;;;;24.03;33.70;98130.47;5024892;28;19975;-82
2023/04/16 08:24:51;;;;;;;;;;;;;;;22.81;36.03;98137.09;5041806;28;19928;-81
2023/04/16 08:27:17;;;;;;;;;;;;;;;24.04;31.07;98128.44;5034175;28;19931;-82
2023/04/16 08:29:43;;;;;;;;;;;;;;;24.77;30.78;98128.06;5044075;28;19982;-82
2023/04/16 08:32:09;;;;;;;;;;;;;;;25.64;29.44;98129.06;5040873;28;19925;-82
2023/04/16 08:34:36;;;;;;;;;;;;;;;24.60;30.89;98132.03;5026368;28;19931;-82
2023/04/16 08:37:02;;;;;;;;;;;;;;;24.84;30.08;98133.50;5045343;28;19943;-83
2023/04/16 08:39:28;;;;;;;;;;;;;;;23.94;35.77;98135.06;5037873;28;20491;-83
2023/04/16 08:41:55;;;;;;;;;;;;;;;23.67;32.55;98137.19;5036656;28;19921;-82
2023/04/16 08:44:31;;;;;;;;;;;;;;;25.48;29.27;98146.75;5039995;28;19975;-82
2023/04/16 08:46:57;;;;;;;;;;;;;;;25.07;28.29;98136.13;5044313;28;20322;-83
2023/04/16 08:49:27;;;;;;;;;;;;;;;25.94;28.45;98143.47;5043087;28;20023;-83
2023/04/16 08:51:54;;;;;;;;;;;;;;;25.69;32.29;98134.94;5043216;28;19982;-83
2023/04/16 08:54:29;;;;;;;;;;;;;;;25.10;29.01;98143.69;5039139;28;20395;-85
2023/04/16 08:56:56;;;;;;;;;;;;;;;25.53;28.54;98151.06;5021904;28;20268;-85
2023/04/16 08:59:23;;;;;;;;;;;;;;;25.95;28.85;98141.44;5049513;28;19927;-86
2023/04/16 09:01:51;;;;;;;;;;;;;;;26.33;28.54;98139.53;5038945;28;19968;-83
2023/04/16 09:04:17;;;;;;;;;;;;;;;25.73;28.79;98149.69;5033644;28;19921;-84
2023/04/16 09:06:44;;;;;;;;;;;;;;;26.09;28.04;98144.63;5037405;28;19929;-84
2023/04/16 09:09:11;;;;;;;;;;;;;;;26.87;26.60;98135.88;5039847;28;19932;-83
2023/04/16 09:11:38;;;;;;;;;;;;;;;27.53;26.56;98138.50;5039440;28;19995;-84
2023/04/16 09:14:08;;;;;;;;;;;;;;;28.15;24.49;98142.28;5043332;28;19952;-83
2023/04/16 09:16:34;;;;;;;;;;;;;;;28.58;23.58;98135.81;5035153;28;19929;-83
2023/04/16 09:19:00;;;;;;;;;;;;;;;27.93;23.56;98147.13;5027569;28;20427;-83
2023/04/16 09:21:26;;;;;;;;;;;;;;;27.05;25.63;98153.00;5042424;28;19924;-83
2023/04/16 09:23:52;;;;;;;;;;;;;;;26.40;26.44;98149.78;5036419;28;19920;-83
2023/04/16 09:26:19;;;;;;;;;;;;;;;26.83;26.53;98143.66;5045012;28;19940;-83
2023/04/16 09:28:46;;;;;;;;;;;;;;;25.29;30.32;98156.88;5042622;28;20335;-83
2023/04/16 09:31:12;;;;;;;;;;;;;;;24.91;29.96;98143.78;5035276;28;19957;-83
2023/04/16 09:33:39;;;;;;;;;;;;;;;26.94;26.21;98138.47;5039328;28;19986;-82
2023/04/16 09:36:06;;;;;;;;;;;;;;;27.51;26.20;98134.56;5038866;28;19961;-83
2023/04/16 09:38:52;;;;;;;;;;;;;;;26.60;26.46;98139.91;5041548;28;19975;-82
2023/04/16 09:41:23;;;;;;;;;;;;;;;27.06;25.24;98132.81;5040729;28;19925;-82
2023/04/16 09:43:56;;;;;;;;;;;;;;;27.47;26.51;98136.72;5038210;28;19929;-83
2023/04/16 09:46:23;;;;;;;;;;;;;;;26.16;26.70;98154.94;5037190;28;19928;-83
2023/04/16 09:48:49;;;;;;;;;;;;;;;27.21;24.11;98135.97;5039834;28;20300;-83
2023/04/16 09:51:15;;;;;;;;;;;;;;;27.82;25.58;98147.50;5030236;28;19931;-84
2023/04/16 09:53:41;;;;;;;;;;;;;;;28.52;25.09;98137.66;5044967;28;19921;-83
2023/04/16 09:56:07;;;;;;;;;;;;;;;29.21;26.25;98150.25;5042341;28;20459;-83
2023/04/16 09:58:40;;;;;;;;;;;;;;;29.78;23.83;98145.78;5042732;28;20047;-83
2023/04/16 10:01:10;;;;;;;;;;;;;;;29.02;24.88;98145.75;5042228;28;19931;-83
2023/04/16 10:03:37;;;;;;;;;;;;;;;28.25;24.29;98151.63;5048543;28;19925;-84
2023/04/16 10:06:07;;;;;;;;;;;;;;;28.60;27.47;98139.78;5043329;28;20430;-83
2023/04/16 10:08:34;;;;;;;;;;;;;;;28.43;24.33;98141.22;5039510;28;20423;-83
2023/04/16 10:11:01;;;;;;;;;;;;;;;27.67;26.21;98134.38;5043949;28;20254;-83
2023/04/16 10:13:26;;;;;;;;;;;;;;;27.09;26.08;98148.81;5046757;28;19936;-84
2023/04/16 10:15:56;;;;;;;;;;;;;;;24.94;36.66;98143.69;5039891;28;19929;-83
2023/04/16 10:18:22;;;;;;;;;;;;;;;24.78;35.50;98143.69;5039695;28;19921;-84
2023/04/16 10:20:51;;;;;;;;;;;;;;;24.51;33.52;98137.47;5038215;28;19925;-84
2023/04/16 10:23:18;;;;;;;;;;;;;;;24.44;29.42;98143.22;5039566;28;20292;-85
2023/04/16 10:25:45;;;;;;;;;;;;;;;25.77;27.81;98139.13;5045686;28;19935;-85
2023/04/16 10:28:12;;;;;;;;;;;;;;;26.92;28.80;98140.94;5041083;28;20003;-84
2023/04/16 10:30:38;;;;;;;;;;;;;;;25.98;32.68;98146.97;5040979;28;19943;-84
2023/04/16 10:33:05;;;;;;;;;;;;;;;25.12;28.64;98144.03;5043437;28;19925;-84
2023/04/16 10:35:31;;;;;;;;;;;;;;;26.62;26.80;98136.63;5043026;28;20023;-84
2023/04/16 10:38:17;;;;;;;;;;;;;;;28.08;25.63;98148.19;5044734;28;20296;-83
2023/04/16 10:40:43;;;;;;;;;;;;;;;29.38;25.13;98145.84;5045651;28;19974;-83
2023/04/16 10:43:15;;;;;;;;;;;;;;;30.06;23.81;98147.34;5044728;28;20296;-83
2023/04/16 10:45:41;;;;;;;;;;;;;;;30.08;23.93;98147.66;5041304;28;19921;-83
2023/04/16 10:48:08;;;;;;;;;;;;;;;30.17;25.22;98140.41;5039291;28;19979;-84
2023/04/16 10:50:35;;;;;;;;;;;;;;;30.83;24.83;98139.28;5029740;28;19925;-84
2023/04/16 10:53:18;;;;;;;;;;;;;;;30.53;23.69;98143.97;5052391;28;20011;-84
2023/04/16 10:55:56;;;;;;;;;;;;;;;31.11;26.40;98140.00;5042943;28;20296;-84
2023/04/16 10:58:26;;;;;;;;;;;;;;;31.77;23.07;98138.63;5045895;28;19968;-84
2023/04/16 11:00:52;;;;;;;;;;;;;;;32.21;23.63;98144.41;5048541;28;20387;-84
2023/04/16 11:03:18;;;;;;;;;;;;;;;32.44;23.98;98139.94;5045313;28;19920;-84
2023/04/16 11:05:45;;;;;;;;;;;;;;;31.42;24.32;98146.94;5040009;28;19921;-83
2023/04/16 11:08:17;;;;;;;;;;;;;;;31.09;22.84;98140.47;5040113;28;19936;-84
2023/04/16 11:10:43;;;;;;;;;;;;;;;29.89;23.95;98146.09;5042916;28;19964;-84
2023/04/16 11:13:11;;;;;;;;;;;;;;;27.89;32.48;98152.91;5040936;28;19929;-83
2023/04/16 11:15:37;;;;;;;;;;;;;;;27.33;30.38;98157.66;5039418;28;19928;-83
2023/04/16 11:18:05;;;;;;;;;;;;;;;25.36;37.09;98164.31;5033465;28;20362;-82
2023/04/16 11:20:31;;;;;;;;;;;;;;;25.42;33.22;98160.53;5042150;28;19943;-82
2023/04/16 11:22:57;;;;;;;;;;;;;;;26.65;26.15;98161.09;5043138;28;19939;-82
2023/04/16 11:25:32;;;;;;;;;;;;;;;26.01;34.94;98165.78;5042116;28;19929;-81
2023/04/16 11:28:00;;;;;;;;;;;;;;;27.44;29.81;98163.78;5046889;28;19920;-81
2023/04/16 11:30:30;;;;;;;;;;;;;;;27.04;25.75;98171.16;5046316;28;19986;-81
2023/04/16 11:32:56;;;;;;;;;;;;;;;28.71;26.64;98161.94;5044048;28;19943;-81
2023/04/16 11:35:22;;;;;;;;;;;;;;;28.51;27.57;98162.31;5042327;28;19921;-82
2023/04/16 11:37:48;;;;;;;;;;;;;;;27.84;28.39;98161.94;5041421;28;19955;-82
2023/04/16 11:40:14;;;;;;;;;;;;;;;26.86;30.02;98159.66;5046196;28;19964;-84
2023/04/16 11:42:41;;;;;;;;;;;;;;;25.79;32.51;98176.03;5044749;28;19932;-85
2023/04/16 11:45:08;;;;;;;;;;;;;;;25.65;35.68;98170.78;5044197;28;19932;-85
2023/04/16 11:47:51;;;;;;;;;;;;;;;25.16;31.79;98167.22;5043173;28;19925;-84
2023/04/16 11:50:22;;;;;;;;;;;;;;;25.79;28.95;98167.59;5043212;28;20441;-85
2023/04/16 11:52:50;;;;;;;;;;;;;;;27.15;25.84;98158.28;5027907;28;21258;-84
2023/04/16 11:55:16;;;;;;;;;;;;;;;26.73;32.98;98154.00;5044857;28;19956;-85
2023/04/16 11:57:42;;;;;;;;;;;;;;;28.24;26.47;98155.69;5049158;28;19978;-85
2023/04/16 12:00:11;;;;;;;;;;;;;;;27.49;30.85;98151.94;5044891;28;19925;-85
2023/04/16 12:02:55;;;;;;;;;;;;;;;27.91;28.07;98153.22;5044020;28;19956;-85
2023/04/16 12:05:36;;;;;;;;;;;;;;;29.62;23.65;98150.91;5043108;28;20403;-85
2023/04/16 12:08:05;;;;;;;;;;;;;;;29.82;23.80;98146.44;5040263;28;20531;-85
2023/04/16 12:10:36;;;;;;;;;;;;;;;29.06;25.48;98154.88;5043774;28;20011;-84
2023/04/16 12:13:15;;;;;;;;;;;;;;;29.64;23.09;98145.59;5032413;28;20337;-84
2023/04/16 12:15:51;;;;;;;;;;;;;;;30.27;25.17;98145.56;5042465;28;19924;-84
2023/04/16 12:18:18;;;;;;;;;;;;;;;31.38;27.24;98137.00;5043333;28;19925;-82
2023/04/16 12:20:45;;;;;;;;;;;;;;;30.63;22.73;98151.19;5046222;28;19943;-82
2023/04/16 12:23:24;;;;;;;;;;;;;;;31.01;23.52;98141.31;5044336;28;19971;-82
2023/04/16 12:25:51;;;;;;;;;;;;;;;30.72;27.26;98141.88;5041925;28;19921;-82
2023/04/16 12:28:30;;;;;;;;;;;;;;;29.39;27.65;98135.34;5041613;28;19913;-80
2023/04/16 12:30:56;;;;;;;;;;;;;;;28.89;23.83;98142.25;5040998;28;19921;-80
2023/04/16 12:33:22;;;;;;;;;;;;;;;29.22;22.91;98134.84;5041444;28;19921;-84
2023/04/16 12:35:49;;;;;;;;;;;;;;;29.57;30.30;98134.59;5048096;28;19963;-84
2023/04/16 12:38:15;;;;;;;;;;;;;;;30.12;22.75;98130.50;5049342;28;20012;-83
2023/04/16 12:40:41;;;;;;;;;;;;;;;30.58;22.91;98131.19;5050776;28;20423;-83
2023/04/16 12:43:10;;;;;;;;;;;;;;;29.33;29.25;98131.56;5035334;28;19932;-83
2023/04/16 12:45:37;;;;;;;;;;;;;;;27.35;33.59;98138.28;5041689;28;20621;-79